Time;durP1;ratioP1;P1;durP2;ratioP2;P2;SDS_P1;SDS_P2;PMS_P1;PMS_P2;Temp;Humidity;BMP_temperature;BMP_pressure;BME280_temperature;BME280_humidity;BME280_pressure;Samples;Min_cycle;Max_cycle;Signal;HPM_P1;HPM_P2
2021/12/29 00:01:48;;;;;;;31.60;10.40;;;7.50;99.90;;;;;;5072366;28;20070;-90
2021/12/29 00:04:15;;;;;;;26.65;10.50;;;7.50;99.90;;;;;;5055512;28;20171;-89
2021/12/29 00:06:41;;;;;;;22.63;9.52;;;7.50;99.90;;;;;;5071336;28;20056;-90
2021/12/29 00:09:06;;;;;;;18.67;8.32;;;7.40;99.90;;;;;;5070084;28;20032;-90
2021/12/29 00:11:37;;;;;;;20.88;9.27;;;7.40;99.90;;;;;;5053311;28;20190;-90
2021/12/29 00:14:03;;;;;;;18.85;7.95;;;7.40;99.90;;;;;;5053431;28;20040;-90
2021/12/29 00:16:33;;;;;;;22.15;8.90;;;7.40;99.90;;;;;;5070063;28;20432;-90
2021/12/29 00:18:58;;;;;;;19.88;8.13;;;7.40;99.90;;;;;;5086755;28;20051;-90
2021/12/29 00:21:26;;;;;;;18.33;7.68;;;7.40;99.90;;;;;;5053178;28;20040;-90
2021/12/29 00:23:51;;;;;;;20.65;8.25;;;7.40;99.90;;;;;;5069194;28;20131;-88
2021/12/29 00:26:17;;;;;;;25.63;9.07;;;7.30;99.90;;;;;;5069940;28;20181;-87
2021/12/29 00:28:43;;;;;;;20.67;7.88;;;7.40;99.90;;;;;;5068120;28;20082;-90
2021/12/29 00:31:09;;;;;;;20.95;8.00;;;7.40;99.90;;;;;;5053954;28;20534;-90
2021/12/29 00:33:34;;;;;;;24.30;8.27;;;7.40;99.90;;;;;;5052466;28;20845;-89
2021/12/29 00:36:00;;;;;;;21.42;8.55;;;7.40;99.90;;;;;;5089206;28;20119;-89
2021/12/29 00:38:26;;;;;;;21.63;8.18;;;7.40;99.90;;;;;;5052282;28;20044;-89
2021/12/29 00:40:51;;;;;;;23.35;8.43;;;7.30;99.90;;;;;;5074801;28;20099;-87
2021/12/29 00:43:17;;;;;;;22.67;8.57;;;7.40;99.90;;;;;;5071677;28;20051;-88
2021/12/29 00:45:44;;;;;;;19.02;7.65;;;7.40;99.90;;;;;;5085828;28;20058;-88
2021/12/29 00:48:12;;;;;;;24.02;8.60;;;7.40;99.90;;;;;;5070682;28;20044;-90
2021/12/29 00:50:39;;;;;;;24.10;9.02;;;7.40;99.90;;;;;;5068272;28;20055;-90
2021/12/29 00:53:07;;;;;;;28.25;9.65;;;7.40;99.90;;;;;;5069234;28;20123;-90
2021/12/29 00:55:33;;;;;;;26.98;9.02;;;7.40;99.90;;;;;;5068881;28;20142;-90
2021/12/29 00:57:59;;;;;;;26.92;9.52;;;7.40;99.90;;;;;;5053104;28;20127;-89
2021/12/29 01:00:25;;;;;;;29.80;9.68;;;7.40;99.90;;;;;;5051218;28;20373;-90
2021/12/29 01:02:52;;;;;;;26.67;9.45;;;7.40;99.90;;;;;;5052949;28;20044;-90
2021/12/29 01:05:19;;;;;;;28.42;9.82;;;7.50;99.90;;;;;;5069342;28;20060;-90
2021/12/29 01:07:45;;;;;;;34.67;11.00;;;7.40;99.90;;;;;;5069610;28;20044;-90
2021/12/29 01:10:14;;;;;;;36.42;11.70;;;7.50;99.90;;;;;;5068310;28;20415;-89
2021/12/29 01:12:46;;;;;;;40.20;12.88;;;7.60;99.90;;;;;;5061572;28;20404;-90
2021/12/29 01:15:16;;;;;;;34.08;11.32;;;7.50;99.90;;;;;;5070353;28;20046;-90
2021/12/29 01:17:42;;;;;;;37.47;12.52;;;7.50;99.90;;;;;;5051279;28;20444;-90
2021/12/29 01:20:08;;;;;;;47.30;13.50;;;7.60;99.90;;;;;;5053071;28;20040;-90
2021/12/29 01:22:33;;;;;;;48.72;14.13;;;7.50;99.90;;;;;;5068738;28;20156;-89
2021/12/29 01:24:59;;;;;;;40.40;13.13;;;7.60;99.90;;;;;;5068933;28;20501;-89
2021/12/29 01:27:25;;;;;;;54.25;14.13;;;7.60;99.90;;;;;;5051729;28;20040;-89
2021/12/29 01:29:50;;;;;;;53.33;13.73;;;7.60;99.90;;;;;;5069106;28;20036;-89
2021/12/29 01:32:16;;;;;;;70.80;14.65;;;7.60;99.90;;;;;;5070026;28;20089;-89
2021/12/29 01:34:41;;;;;;;59.58;14.38;;;7.60;99.90;;;;;;5068008;28;20591;-89
2021/12/29 01:37:07;;;;;;;61.47;14.88;;;7.60;99.90;;;;;;5052264;28;20078;-89
2021/12/29 01:39:33;;;;;;;75.43;16.02;;;7.60;99.90;;;;;;5066894;28;20127;-88
2021/12/29 01:41:59;;;;;;;70.85;16.25;;;7.60;99.90;;;;;;5052528;28;20040;-88
2021/12/29 01:44:27;;;;;;;87.38;17.70;;;7.60;99.90;;;;;;5068449;28;20040;-90
2021/12/29 01:46:55;;;;;;;93.47;17.30;;;7.60;99.90;;;;;;5071508;28;20036;-89
2021/12/29 01:49:21;;;;;;;89.90;15.90;;;7.60;99.90;;;;;;5050876;28;20117;-89
2021/12/29 01:51:59;;;;;;;91.63;18.30;;;7.60;99.90;;;;;;5086211;28;20071;-89
2021/12/29 01:54:25;;;;;;;143.00;20.05;;;7.60;99.90;;;;;;5051753;28;20395;-89
2021/12/29 01:56:54;;;;;;;102.45;18.98;;;7.60;99.90;;;;;;5067680;28;20048;-89
2021/12/29 01:59:21;;;;;;;129.63;20.55;;;7.60;99.90;;;;;;5051219;28;20048;-89
2021/12/29 02:01:47;;;;;;;99.95;19.20;;;7.70;99.90;;;;;;5085217;28;20197;-89
2021/12/29 02:04:13;;;;;;;116.80;19.83;;;7.60;99.90;;;;;;5068759;28;20036;-89
2021/12/29 02:06:39;;;;;;;83.32;16.70;;;7.70;99.90;;;;;;5065558;28;20060;-89
2021/12/29 02:09:06;;;;;;;100.60;18.23;;;7.60;99.90;;;;;;5064207;28;20074;-89
2021/12/29 02:11:37;;;;;;;88.38;15.38;;;7.70;99.90;;;;;;5070410;28;20433;-90
2021/12/29 02:14:06;;;;;;;98.63;16.45;;;7.60;99.90;;;;;;5068323;28;20044;-89
2021/12/29 02:16:32;;;;;;;100.88;16.92;;;7.60;99.90;;;;;;5068979;28;20400;-89
2021/12/29 02:19:01;;;;;;;87.28;15.68;;;7.60;99.90;;;;;;5067746;28;20059;-90
2021/12/29 02:21:28;;;;;;;73.72;14.80;;;7.60;99.90;;;;;;5066032;28;20068;-90
2021/12/29 02:24:16;;;;;;;74.95;14.75;;;7.70;99.90;;;;;;5050228;28;20040;-88
2021/12/29 02:26:44;;;;;;;78.97;13.65;;;7.60;99.90;;;;;;5065788;28;20813;-89
2021/12/29 02:29:14;;;;;;;81.35;14.45;;;7.60;99.90;;;;;;5064676;28;20044;-89
2021/12/29 02:31:40;;;;;;;78.05;13.77;;;7.60;99.90;;;;;;5067078;28;20159;-90
2021/12/29 02:34:08;;;;;;;95.15;15.45;;;7.60;99.90;;;;;;5051052;28;20117;-90
2021/12/29 02:36:34;;;;;;;97.78;15.88;;;7.70;99.90;;;;;;5050180;28;20044;-89
2021/12/29 02:39:01;;;;;;;92.03;16.35;;;7.70;99.90;;;;;;5066751;28;20043;-89
2021/12/29 02:41:28;;;;;;;76.68;15.02;;;7.70;99.90;;;;;;5067777;28;20063;-89
2021/12/29 02:44:01;;;;;;;73.25;16.00;;;7.70;99.90;;;;;;5067045;28;20048;-88
2021/12/29 02:46:28;;;;;;;62.45;15.18;;;7.70;99.90;;;;;;5067291;28;20121;-88
2021/12/29 02:49:01;;;;;;;59.08;15.57;;;7.70;99.90;;;;;;5066555;28;20040;-89
2021/12/29 02:51:30;;;;;;;54.60;14.95;;;7.70;99.90;;;;;;5082308;28;20474;-89
2021/12/29 02:53:56;;;;;;;46.22;14.00;;;7.80;99.90;;;;;;5068291;28;20040;-90
2021/12/29 02:56:29;;;;;;;49.00;14.45;;;7.70;99.90;;;;;;5050192;28;20089;-88
2021/12/29 02:58:56;;;;;;;46.58;14.38;;;7.80;99.90;;;;;;5054082;28;20067;-90
2021/12/29 03:01:22;;;;;;;42.65;13.48;;;7.80;99.90;;;;;;5065250;28;20040;-89
2021/12/29 03:03:48;;;;;;;39.70;14.05;;;7.80;99.90;;;;;;5067057;28;20048;-89
2021/12/29 03:06:14;;;;;;;40.28;14.40;;;7.80;99.90;;;;;;5051159;28;20098;-89
2021/12/29 03:08:40;;;;;;;39.28;15.05;;;7.80;99.90;;;;;;5049689;28;20056;-88
2021/12/29 03:11:06;;;;;;;41.50;15.38;;;7.90;99.90;;;;;;5050054;28;20063;-88
2021/12/29 03:13:34;;;;;;;49.03;16.50;;;7.90;99.90;;;;;;5049679;28;20391;-90
2021/12/29 03:16:01;;;;;;;47.83;16.40;;;7.90;99.90;;;;;;5051606;28;20062;-89
2021/12/29 03:18:29;;;;;;;47.72;16.65;;;7.90;99.90;;;;;;5053033;28;20036;-88
2021/12/29 03:20:56;;;;;;;57.92;17.60;;;7.90;99.90;;;;;;5050278;28;20506;-90
2021/12/29 03:23:22;;;;;;;48.55;16.80;;;7.90;99.90;;;;;;5049906;28;20319;-90
2021/12/29 03:25:48;;;;;;;51.20;18.45;;;8.00;99.90;;;;;;5068409;28;20035;-89
2021/12/29 03:28:19;;;;;;;57.45;18.58;;;7.90;99.90;;;;;;5067292;28;20070;-90
2021/12/29 03:30:49;;;;;;;63.97;18.90;;;8.00;99.90;;;;;;5065959;28;20044;-89
2021/12/29 03:33:15;;;;;;;57.17;18.35;;;7.90;99.90;;;;;;5050547;28;20036;-90
2021/12/29 03:35:43;;;;;;;58.55;19.10;;;8.00;99.90;;;;;;5049671;28;20536;-90
2021/12/29 03:38:15;;;;;;;54.67;19.17;;;8.00;99.90;;;;;;5065193;28;20488;-88
2021/12/29 03:40:41;;;;;;;64.95;21.27;;;8.00;99.90;;;;;;5049573;28;20361;-89
2021/12/29 03:43:09;;;;;;;52.80;20.15;;;8.00;99.90;;;;;;5082268;28;20062;-89
2021/12/29 03:45:37;;;;;;;63.30;21.80;;;8.00;99.90;;;;;;5049424;28;20048;-90
2021/12/29 03:48:06;;;;;;;63.95;21.45;;;8.00;99.90;;;;;;5064210;28;20450;-90
2021/12/29 03:50:32;;;;;;;61.63;21.25;;;8.10;99.90;;;;;;5065655;28;20373;-89
2021/12/29 03:52:58;;;;;;;48.15;19.42;;;8.00;99.90;;;;;;5052036;28;20047;-89
2021/12/29 03:55:24;;;;;;;55.10;21.08;;;8.10;99.90;;;;;;5049561;28;20043;-89
2021/12/29 03:57:50;;;;;;;60.03;21.98;;;8.10;99.90;;;;;;5050179;28;20071;-87
2021/12/29 04:00:17;;;;;;;58.15;22.17;;;8.10;99.90;;;;;;5050497;28;20075;-89
2021/12/29 04:02:43;;;;;;;51.40;20.13;;;8.10;99.90;;;;;;5061416;28;20057;-90
2021/12/29 04:05:14;;;;;;;52.80;21.15;;;8.10;99.90;;;;;;5050272;28;20369;-90
2021/12/29 04:07:40;;;;;;;47.80;20.30;;;8.10;99.90;;;;;;5065690;28;20044;-90
2021/12/29 04:10:08;;;;;;;47.13;21.70;;;8.10;99.90;;;;;;5052600;28;20050;-90
2021/12/29 04:12:34;;;;;;;47.13;20.40;;;8.10;99.90;;;;;;5054953;28;20083;-90
2021/12/29 04:15:00;;;;;;;49.33;20.30;;;8.10;99.90;;;;;;5050202;28;20032;-90
2021/12/29 04:17:36;;;;;;;49.97;20.58;;;8.10;99.90;;;;;;5047692;28;20177;-90
2021/12/29 04:22:50;;;;;;;50.88;21.58;;;8.10;99.90;;;;;;5070965;28;20427;-90
2021/12/29 04:25:17;;;;;;;51.92;22.25;;;8.10;99.90;;;;;;5075194;28;20048;-90
2021/12/29 04:27:43;;;;;;;56.20;23.30;;;8.10;99.90;;;;;;5054601;28;20047;-89
2021/12/29 04:30:09;;;;;;;49.15;21.50;;;8.10;99.90;;;;;;5054238;28;20047;-90
2021/12/29 04:32:34;;;;;;;47.80;21.92;;;8.10;99.90;;;;;;5054626;28;20408;-90
2021/12/29 04:35:00;;;;;;;54.38;23.25;;;8.20;99.90;;;;;;5057360;28;20059;-91
2021/12/29 04:37:26;;;;;;;57.28;21.83;;;8.10;99.90;;;;;;5071985;28;20036;-88
2021/12/29 04:39:51;;;;;;;53.17;21.98;;;8.20;99.90;;;;;;5089408;28;20051;-90
2021/12/29 04:42:17;;;;;;;58.58;22.48;;;8.10;99.90;;;;;;5059300;28;20036;-90
2021/12/29 04:44:43;;;;;;;50.25;22.67;;;8.10;99.90;;;;;;5071709;28;20310;-90
2021/12/29 04:47:08;;;;;;;47.67;21.13;;;8.20;99.90;;;;;;5069981;28;20047;-90
2021/12/29 04:49:40;;;;;;;45.15;19.80;;;8.10;99.90;;;;;;5068803;28;20051;-90
2021/12/29 04:52:08;;;;;;;43.95;19.95;;;8.20;99.90;;;;;;5069507;28;20047;-88
2021/12/29 04:54:34;;;;;;;39.88;19.27;;;8.20;99.90;;;;;;5052056;28;20264;-91
2021/12/29 04:57:00;;;;;;;38.25;19.27;;;8.20;99.90;;;;;;5053588;28;20085;-90
2021/12/29 04:59:27;;;;;;;41.65;19.52;;;8.20;99.90;;;;;;5051321;28;20058;-90
2021/12/29 05:01:54;;;;;;;41.47;19.52;;;8.20;99.90;;;;;;5069646;28;20480;-90
2021/12/29 05:04:46;;;;;;;38.97;18.27;;;8.20;99.90;;;;;;5052776;28;20059;-90
2021/12/29 05:09:52;;;;;;;49.67;20.75;;;8.20;99.90;;;;;;5068232;28;20166;-88
2021/12/29 05:12:17;;;;;;;42.80;19.45;;;8.20;99.90;;;;;;5069536;28;20127;-88
2021/12/29 05:14:43;;;;;;;40.22;19.45;;;8.20;99.90;;;;;;5068575;28;20696;-91
2021/12/29 05:17:09;;;;;;;43.28;19.33;;;8.20;99.90;;;;;;5069878;28;20055;-90
2021/12/29 05:19:35;;;;;;;42.78;19.52;;;8.10;99.90;;;;;;5054559;28;20055;-90
2021/12/29 05:22:01;;;;;;;39.20;19.50;;;8.20;99.90;;;;;;5069020;28;20040;-90
2021/12/29 05:24:26;;;;;;;37.75;19.58;;;8.10;99.90;;;;;;5051688;28;20400;-91
2021/12/29 05:26:52;;;;;;;39.92;19.80;;;8.20;99.90;;;;;;5053338;28;20076;-91
2021/12/29 05:29:17;;;;;;;45.38;19.98;;;8.10;99.90;;;;;;5053488;28;20471;-91
2021/12/29 05:31:43;;;;;;;40.53;20.38;;;8.10;99.90;;;;;;5067860;28;20075;-91
2021/12/29 05:34:09;;;;;;;41.50;20.00;;;8.10;99.90;;;;;;5055949;28;20221;-89
2021/12/29 05:36:34;;;;;;;51.38;21.48;;;8.10;99.90;;;;;;5072112;28;20036;-91
2021/12/29 05:39:00;;;;;;;43.90;21.05;;;8.10;99.90;;;;;;5069560;28;20055;-90
2021/12/29 05:41:26;;;;;;;46.83;21.85;;;8.10;99.90;;;;;;5052136;28;20040;-91
2021/12/29 05:43:51;;;;;;;46.47;21.50;;;8.10;99.90;;;;;;5051937;28;20373;-91
2021/12/29 05:46:17;;;;;;;44.40;21.63;;;8.10;99.90;;;;;;5068891;28;20040;-91
2021/12/29 05:48:43;;;;;;;39.67;20.65;;;8.10;99.90;;;;;;5069811;28;20165;-90
2021/12/29 05:51:12;;;;;;;41.53;21.38;;;8.10;99.90;;;;;;5069265;28;20048;-91
2021/12/29 05:53:41;;;;;;;43.58;22.02;;;8.10;99.90;;;;;;5067338;28;20050;-89
2021/12/29 05:56:07;;;;;;;41.50;21.08;;;8.10;99.90;;;;;;5065859;28;20048;-91
2021/12/29 05:58:34;;;;;;;43.53;21.80;;;8.10;99.90;;;;;;5068080;28;20413;-88
2021/12/29 06:00:59;;;;;;;43.13;21.60;;;8.10;99.90;;;;;;5068824;28;20392;-88
2021/12/29 06:03:25;;;;;;;44.22;21.58;;;8.10;99.90;;;;;;5066924;28;20043;-90
2021/12/29 06:05:51;;;;;;;44.28;21.73;;;8.10;99.90;;;;;;5068092;28;20094;-90
2021/12/29 06:08:17;;;;;;;48.95;22.27;;;8.10;99.90;;;;;;5068752;28;20048;-91
2021/12/29 06:10:43;;;;;;;46.75;21.98;;;8.10;99.90;;;;;;5068261;28;20194;-91
2021/12/29 06:13:09;;;;;;;46.08;21.75;;;8.10;99.90;;;;;;5069002;28;20043;-90
2021/12/29 06:15:35;;;;;;;48.42;22.15;;;8.00;99.90;;;;;;5066403;28;20036;-91
2021/12/29 06:18:00;;;;;;;41.75;20.60;;;8.10;99.90;;;;;;5051895;28;20052;-90
2021/12/29 06:20:26;;;;;;;43.75;20.95;;;8.10;99.90;;;;;;5068935;28;20048;-89
2021/12/29 06:22:52;;;;;;;39.22;20.13;;;8.10;99.90;;;;;;5067833;28;20054;-88
2021/12/29 06:25:18;;;;;;;39.58;19.85;;;8.20;99.90;;;;;;5067560;28;20059;-91
2021/12/29 06:27:44;;;;;;;42.40;19.95;;;8.20;99.90;;;;;;5066239;28;20040;-91
2021/12/29 06:30:12;;;;;;;43.10;19.90;;;8.20;99.90;;;;;;5051245;28;20064;-91
2021/12/29 06:32:39;;;;;;;38.63;18.20;;;8.20;99.90;;;;;;5064109;28;20211;-91
2021/12/29 06:35:07;;;;;;;41.35;19.08;;;8.10;99.90;;;;;;5051323;28;20044;-91
2021/12/29 06:37:33;;;;;;;39.13;18.65;;;8.20;99.90;;;;;;5069916;28;20043;-90
2021/12/29 06:39:59;;;;;;;43.15;19.42;;;8.20;99.90;;;;;;5067688;28;20047;-90
2021/12/29 06:42:28;;;;;;;43.10;19.10;;;8.20;99.90;;;;;;5048610;28;20534;-91
2021/12/29 06:44:55;;;;;;;41.85;18.27;;;8.20;99.90;;;;;;5046450;28;20063;-89
2021/12/29 06:47:21;;;;;;;39.28;17.52;;;8.20;99.90;;;;;;5066465;28;20044;-89
2021/12/29 06:49:46;;;;;;;44.13;19.55;;;8.20;99.90;;;;;;5067460;28;20467;-88
2021/12/29 06:52:12;;;;;;;46.05;19.13;;;8.20;99.90;;;;;;5067245;28;20192;-90
2021/12/29 06:54:38;;;;;;;46.25;18.20;;;8.20;99.90;;;;;;5049358;28;20353;-88
2021/12/29 06:57:04;;;;;;;49.92;19.38;;;8.20;99.90;;;;;;5067077;28;20079;-89
2021/12/29 06:59:30;;;;;;;47.22;19.52;;;8.20;99.90;;;;;;5049477;28;20048;-90
2021/12/29 07:01:56;;;;;;;45.63;18.33;;;8.20;99.90;;;;;;5050985;28;20056;-88
2021/12/29 07:04:23;;;;;;;51.83;20.15;;;8.20;99.90;;;;;;5049488;28;20047;-89
2021/12/29 07:06:50;;;;;;;53.20;20.30;;;8.20;99.90;;;;;;5065857;28;20060;-88
2021/12/29 07:09:16;;;;;;;63.17;21.30;;;8.20;99.90;;;;;;5066558;28;20047;-89
2021/12/29 07:11:42;;;;;;;50.00;20.63;;;8.20;99.90;;;;;;5064361;28;20932;-89
2021/12/29 07:14:09;;;;;;;54.25;20.35;;;8.20;99.90;;;;;;5050790;28;20125;-89
2021/12/29 07:16:36;;;;;;;51.03;20.25;;;8.20;99.90;;;;;;5048174;28;20097;-89
2021/12/29 07:19:02;;;;;;;63.53;22.67;;;8.20;99.90;;;;;;5063327;28;20119;-89
2021/12/29 07:21:27;;;;;;;54.25;21.55;;;8.20;99.90;;;;;;5050658;28;20180;-88
2021/12/29 07:23:54;;;;;;;65.93;21.90;;;8.20;99.90;;;;;;5053542;28;20040;-89
2021/12/29 07:26:21;;;;;;;66.72;21.60;;;8.20;99.90;;;;;;5067195;28;20396;-90
2021/12/29 07:28:47;;;;;;;55.22;21.38;;;8.20;99.90;;;;;;5051070;28;20388;-89
2021/12/29 07:31:12;;;;;;;53.28;21.10;;;8.20;99.90;;;;;;5050062;28;20058;-90
2021/12/29 07:33:38;;;;;;;59.42;21.60;;;8.20;99.90;;;;;;5068706;28;20407;-90
2021/12/29 07:36:04;;;;;;;56.70;21.13;;;8.20;99.90;;;;;;5067559;28;20381;-90
2021/12/29 07:38:30;;;;;;;52.33;20.05;;;8.20;99.90;;;;;;5068253;28;20028;-89
2021/12/29 07:40:56;;;;;;;53.00;19.65;;;8.30;99.90;;;;;;5050575;28;20407;-89
2021/12/29 07:43:21;;;;;;;69.60;21.48;;;8.20;99.90;;;;;;5066125;28;20412;-88
2021/12/29 07:45:47;;;;;;;60.83;20.88;;;8.30;99.90;;;;;;5050448;28;20043;-89
2021/12/29 07:48:14;;;;;;;55.40;21.00;;;8.30;99.90;;;;;;5068255;28;20048;-89
2021/12/29 07:50:39;;;;;;;57.72;19.55;;;8.30;99.90;;;;;;5050032;28;20051;-90
2021/12/29 07:53:05;;;;;;;59.88;20.27;;;8.20;99.90;;;;;;5049469;28;20048;-90
2021/12/29 07:55:31;;;;;;;50.22;19.75;;;8.30;99.90;;;;;;5067484;28;20105;-89
2021/12/29 07:57:58;;;;;;;52.53;19.55;;;8.30;99.90;;;;;;5071981;28;20050;-92
2021/12/29 08:00:24;;;;;;;53.65;19.95;;;8.30;99.90;;;;;;5066975;28;20039;-89
2021/12/29 08:02:51;;;;;;;50.00;19.33;;;8.30;99.90;;;;;;5070725;28;20073;-92
2021/12/29 08:05:17;;;;;;;54.92;20.88;;;8.30;99.90;;;;;;5056346;28;20186;-91
2021/12/29 08:07:42;;;;;;;56.03;20.63;;;8.30;99.90;;;;;;5071710;28;20377;-90
2021/12/29 08:10:08;;;;;;;57.38;20.17;;;8.30;99.90;;;;;;5072515;28;20101;-90
2021/12/29 08:12:34;;;;;;;52.03;19.27;;;8.30;99.90;;;;;;5069963;28;20043;-90
2021/12/29 08:15:00;;;;;;;59.25;20.77;;;8.30;99.90;;;;;;5070365;28;20119;-90
2021/12/29 08:17:26;;;;;;;49.25;19.30;;;8.30;99.90;;;;;;5052890;28;20135;-90
2021/12/29 08:19:51;;;;;;;48.15;18.60;;;8.30;99.90;;;;;;5070492;28;20136;-90
2021/12/29 08:22:17;;;;;;;51.35;19.38;;;8.30;99.90;;;;;;5052477;28;20040;-90
2021/12/29 08:24:44;;;;;;;60.72;20.48;;;8.30;99.90;;;;;;5068898;28;20040;-89
2021/12/29 08:27:10;;;;;;;56.72;19.80;;;8.30;99.90;;;;;;5073401;28;20900;-89
2021/12/29 08:29:36;;;;;;;50.60;19.27;;;8.30;99.90;;;;;;5077351;28;20047;-88
2021/12/29 08:32:03;;;;;;;57.78;19.40;;;8.30;99.90;;;;;;5079256;28;20420;-87
2021/12/29 08:34:28;;;;;;;55.60;19.42;;;8.40;99.90;;;;;;5090488;28;20039;-90
2021/12/29 08:36:54;;;;;;;60.10;19.85;;;8.30;99.90;;;;;;5058464;28;20048;-89
2021/12/29 08:39:20;;;;;;;68.65;21.00;;;8.40;99.90;;;;;;5074140;28;20554;-92
2021/12/29 08:41:47;;;;;;;62.83;20.42;;;8.40;99.90;;;;;;5069453;28;20047;-91
2021/12/29 08:44:13;;;;;;;55.05;18.80;;;8.40;99.90;;;;;;5052043;28;20075;-91
2021/12/29 08:46:40;;;;;;;57.58;18.83;;;8.40;99.90;;;;;;5049023;28;20445;-90
2021/12/29 08:49:05;;;;;;;62.75;19.30;;;8.40;99.90;;;;;;5070071;28;20052;-92
2021/12/29 08:51:31;;;;;;;70.25;21.05;;;8.30;99.90;;;;;;5087252;28;20464;-92
2021/12/29 08:53:57;;;;;;;71.55;19.77;;;8.40;99.90;;;;;;5069586;28;20028;-91
2021/12/29 08:56:24;;;;;;;67.38;20.23;;;8.30;99.90;;;;;;5051927;28;20044;-87
2021/12/29 08:58:50;;;;;;;83.57;19.63;;;8.40;99.90;;;;;;5053136;28;20055;-88
2021/12/29 09:01:17;;;;;;;63.90;18.95;;;8.40;99.90;;;;;;5052022;28;20055;-87
2021/12/29 09:03:42;;;;;;;72.30;19.60;;;8.40;99.90;;;;;;5068080;28;20044;-88
2021/12/29 09:06:08;;;;;;;87.90;19.80;;;8.40;99.90;;;;;;5033612;28;20057;-88
2021/12/29 09:08:34;;;;;;;83.20;19.30;;;8.40;99.90;;;;;;5029869;28;20099;-87
2021/12/29 09:10:59;;;;;;;74.85;18.10;;;8.40;99.90;;;;;;5035551;28;21062;-88
2021/12/29 09:13:25;;;;;;;93.07;20.10;;;8.40;99.90;;;;;;5030496;28;20072;-89
2021/12/29 09:15:56;;;;;;;82.80;19.25;;;8.40;99.90;;;;;;5048184;28;20041;-90
2021/12/29 09:18:23;;;;;;;110.70;19.63;;;8.40;99.90;;;;;;5031320;28;20087;-91
2021/12/29 09:20:49;;;;;;;95.10;20.50;;;8.40;99.90;;;;;;5048545;28;20511;-90
2021/12/29 09:23:15;;;;;;;81.35;19.25;;;8.40;99.90;;;;;;5058520;28;20090;-91
2021/12/29 09:25:43;;;;;;;108.20;21.08;;;8.50;99.90;;;;;;5048036;28;20409;-91
2021/12/29 09:28:13;;;;;;;127.82;22.20;;;8.50;99.90;;;;;;5050504;28;20040;-90
2021/12/29 09:30:40;;;;;;;102.70;20.42;;;8.50;99.90;;;;;;5028504;28;20481;-91
2021/12/29 09:33:07;;;;;;;67.78;17.95;;;8.50;99.90;;;;;;5048387;28;20465;-90
2021/12/29 09:35:33;;;;;;;59.15;16.35;;;8.50;99.90;;;;;;5053858;28;20085;-91
2021/12/29 09:37:59;;;;;;;64.25;17.00;;;8.50;99.90;;;;;;5054111;28;20040;-89
2021/12/29 09:40:25;;;;;;;43.60;14.40;;;8.50;99.90;;;;;;5057181;28;20055;-91
2021/12/29 09:42:54;;;;;;;36.72;12.80;;;8.50;99.90;;;;;;5043041;28;20078;-90
2021/12/29 09:45:21;;;;;;;41.30;13.30;;;8.60;99.90;;;;;;5045699;28;20045;-89
2021/12/29 09:47:47;;;;;;;40.35;13.40;;;8.60;99.90;;;;;;5031505;28;20087;-90
2021/12/29 09:50:17;;;;;;;32.38;12.32;;;8.60;99.90;;;;;;5033303;28;20055;-91
2021/12/29 09:52:43;;;;;;;35.58;13.07;;;8.60;99.90;;;;;;5038520;28;20122;-91
2021/12/29 09:55:11;;;;;;;38.40;13.50;;;8.60;99.90;;;;;;5052458;28;20405;-91
2021/12/29 09:57:44;;;;;;;30.08;12.10;;;8.70;99.90;;;;;;5033829;28;20053;-91
2021/12/29 10:00:26;;;;;;;35.53;12.45;;;8.70;99.90;;;;;;5041329;28;20041;-88
2021/12/29 10:02:53;;;;;;;33.50;12.68;;;8.70;99.90;;;;;;5040071;28;20083;-91
2021/12/29 10:05:20;;;;;;;28.83;11.38;;;8.70;99.90;;;;;;5041777;28;20060;-91
2021/12/29 10:08:06;;;;;;;26.33;11.43;;;8.80;99.90;;;;;;5034752;28;20041;-89
2021/12/29 10:10:34;;;;;;;25.02;10.98;;;8.80;99.90;;;;;;5024786;28;20047;-90
2021/12/29 10:13:00;;;;;;;32.97;11.88;;;8.70;99.90;;;;;;5047317;28;20052;-87
2021/12/29 10:15:45;;;;;;;25.77;11.02;;;8.80;99.90;;;;;;5044098;28;20041;-87
2021/12/29 10:18:17;;;;;;;28.58;11.90;;;8.90;99.90;;;;;;5045548;28;20162;-88
2021/12/29 10:20:53;;;;;;;29.85;12.82;;;8.90;99.90;;;;;;5029256;28;20652;-88
2021/12/29 10:23:28;;;;;;;32.35;13.20;;;8.90;99.90;;;;;;5052027;28;20064;-89
2021/12/29 10:25:56;;;;;;;30.27;13.45;;;8.90;99.90;;;;;;5050506;28;20045;-89
2021/12/29 10:28:32;;;;;;;28.52;13.45;;;8.90;99.90;;;;;;5054192;28;20102;-89
2021/12/29 10:31:08;;;;;;;30.92;13.52;;;8.90;99.90;;;;;;5048216;28;20040;-89
2021/12/29 10:33:41;;;;;;;31.50;13.45;;;8.90;99.90;;;;;;5043663;28;20040;-89
2021/12/29 10:36:14;;;;;;;33.70;13.75;;;8.90;99.90;;;;;;5052488;28;20076;-88
2021/12/29 10:38:40;;;;;;;28.63;13.90;;;8.90;99.90;;;;;;5046385;28;20052;-90
2021/12/29 10:41:06;;;;;;;29.83;13.52;;;8.90;99.90;;;;;;5063100;28;20040;-90
2021/12/29 10:43:32;;;;;;;27.52;13.60;;;9.00;99.90;;;;;;5049752;28;20051;-90
2021/12/29 10:45:59;;;;;;;29.45;13.82;;;9.00;99.90;;;;;;5031671;28;20033;-89
2021/12/29 10:48:29;;;;;;;24.48;13.05;;;9.00;99.90;;;;;;5049201;28;20056;-89
2021/12/29 10:50:54;;;;;;;31.77;14.50;;;9.00;99.90;;;;;;5041867;28;20165;-89
2021/12/29 10:53:21;;;;;;;27.10;13.70;;;8.90;99.90;;;;;;5037819;28;20044;-87
2021/12/29 10:55:47;;;;;;;27.88;13.45;;;8.90;99.90;;;;;;5059486;28;20068;-87
2021/12/29 10:58:16;;;;;;;22.05;11.48;;;8.90;99.90;;;;;;5051807;28;20083;-88
2021/12/29 11:00:45;;;;;;;24.92;12.68;;;8.90;99.90;;;;;;5047037;28;20401;-88
2021/12/29 11:03:22;;;;;;;28.20;12.27;;;8.90;99.90;;;;;;5056834;28;20055;-88
2021/12/29 11:05:58;;;;;;;25.45;12.02;;;9.00;99.90;;;;;;5040392;28;20053;-88
2021/12/29 11:08:28;;;;;;;25.38;11.23;;;9.00;99.90;;;;;;5041970;28;20063;-88
2021/12/29 11:11:02;;;;;;;25.27;11.30;;;9.00;99.90;;;;;;5039750;28;20077;-89
2021/12/29 11:13:29;;;;;;;24.17;11.20;;;9.00;99.90;;;;;;5043341;28;20049;-88
2021/12/29 11:15:56;;;;;;;26.13;11.32;;;9.10;99.90;;;;;;5041295;28;20436;-89
2021/12/29 11:18:22;;;;;;;23.75;11.30;;;9.10;99.90;;;;;;5027022;28;20082;-88
2021/12/29 11:20:57;;;;;;;23.65;10.55;;;9.10;99.90;;;;;;5044265;28;20051;-88
2021/12/29 11:23:23;;;;;;;23.17;10.48;;;9.20;99.90;;;;;;5041132;28;20104;-86
2021/12/29 11:25:51;;;;;;;25.67;11.30;;;9.20;99.90;;;;;;5044096;28;20103;-89
2021/12/29 11:28:21;;;;;;;27.17;11.43;;;9.30;99.90;;;;;;5026711;28;20095;-87
2021/12/29 11:30:47;;;;;;;22.77;10.88;;;9.30;99.90;;;;;;5054832;28;20043;-88
2021/12/29 11:33:13;;;;;;;25.52;11.73;;;9.40;99.90;;;;;;5044972;28;20136;-87
2021/12/29 11:35:41;;;;;;;26.73;12.20;;;9.40;99.90;;;;;;5025862;28;20040;-88
2021/12/29 11:38:08;;;;;;;21.00;11.25;;;9.40;99.90;;;;;;5045436;28;20174;-87
2021/12/29 11:40:39;;;;;;;21.33;10.90;;;9.50;99.90;;;;;;5052000;28;20033;-88
2021/12/29 11:43:07;;;;;;;22.42;10.85;;;9.50;99.90;;;;;;5033471;28;20056;-87
2021/12/29 11:45:34;;;;;;;24.30;9.45;;;9.50;99.90;;;;;;5043255;28;20041;-88
2021/12/29 11:48:00;;;;;;;21.67;9.23;;;9.50;99.90;;;;;;5042696;28;20378;-87
2021/12/29 11:50:35;;;;;;;17.52;8.90;;;9.50;99.90;;;;;;5043317;28;20086;-88
2021/12/29 11:53:20;;;;;;;21.27;9.20;;;9.40;99.90;;;;;;5044144;28;20045;-88
2021/12/29 11:55:48;;;;;;;23.65;9.57;;;9.40;99.90;;;;;;5043768;28;20053;-88
2021/12/29 11:58:19;;;;;;;21.35;8.52;;;9.30;99.90;;;;;;5044305;28;20043;-87
2021/12/29 12:01:07;;;;;;;23.25;9.23;;;9.40;99.90;;;;;;5042445;28;20401;-86
2021/12/29 12:04:03;;;;;;;19.73;9.35;;;9.30;99.90;;;;;;5041483;28;20100;-88
2021/12/29 12:06:37;;;;;;;23.27;12.55;;;9.30;99.90;;;;;;5015755;28;20478;-87
2021/12/29 12:09:25;;;;;;;22.90;12.00;;;9.30;99.90;;;;;;5027390;28;20519;-89
2021/12/29 12:11:56;;;;;;;27.23;11.50;;;9.30;99.90;;;;;;5024623;28;20045;-89
2021/12/29 12:14:23;;;;;;;;;;;9.30;99.90;;;;;;5025646;28;20037;-90
2021/12/29 12:16:55;;;;;;;27.75;14.77;;;9.20;99.90;;;;;;5042946;28;19920;-90
2021/12/29 12:19:23;;;;;;;29.00;15.82;;;9.20;99.90;;;;;;5043801;28;20075;-90
2021/12/29 12:22:00;;;;;;;26.65;13.40;;;9.20;99.90;;;;;;5027426;28;20053;-90
2021/12/29 12:24:25;;;;;;;21.70;11.73;;;9.20;99.90;;;;;;5039492;28;20037;-87
2021/12/29 12:26:52;;;;;;;24.02;12.23;;;9.20;99.90;;;;;;5043899;28;20703;-88
2021/12/29 12:29:18;;;;;;;21.23;11.45;;;9.20;99.90;;;;;;5041992;28;20044;-90
2021/12/29 12:32:08;;;;;;;26.70;11.93;;;9.20;99.90;;;;;;5025415;28;20036;-91
2021/12/29 12:34:46;;;;;;;26.05;12.80;;;9.20;99.90;;;;;;5041336;28;20057;-90
2021/12/29 12:37:17;;;;;;;26.88;11.98;;;9.20;99.90;;;;;;5040507;28;20072;-90
2021/12/29 12:39:58;;;;;;;22.55;11.18;;;9.20;99.90;;;;;;5043039;28;20443;-91
2021/12/29 12:42:25;;;;;;;21.55;12.23;;;9.20;99.90;;;;;;5044026;28;20064;-90
2021/12/29 12:44:51;;;;;;;26.50;11.57;;;9.20;99.90;;;;;;5030177;28;20037;-90
2021/12/29 12:47:16;;;;;;;26.38;11.93;;;9.20;99.90;;;;;;5030165;28;20056;-91